sensor_id;sensor_type;location;lat;lon;timestamp;P1;durP1;ratioP1;P2;durP2;ratioP2
20369;SDS011;10344;47.592;9.600;2022-07-29T00:01:28;1.45;;;1.35;;
20369;SDS011;10344;47.592;9.600;2022-07-29T00:25:47;1.40;;;1.10;;
20369;SDS011;10344;47.592;9.600;2022-07-29T01:26:02;1.27;;;1.13;;
20369;SDS011;10344;47.592;9.600;2022-07-29T01:39:52;1.20;;;1.10;;
20369;SDS011;10344;47.592;9.600;2022-07-29T04:37:59;1.77;;;1.30;;
20369;SDS011;10344;47.592;9.600;2022-07-29T04:40:25;2.47;;;1.33;;
20369;SDS011;10344;47.592;9.600;2022-07-29T04:42:50;1.48;;;1.38;;
20369;SDS011;10344;47.592;9.600;2022-07-29T04:45:16;2.25;;;1.50;;
20369;SDS011;10344;47.592;9.600;2022-07-29T04:47:42;1.23;;;1.13;;
20369;SDS011;10344;47.592;9.600;2022-07-29T04:50:10;1.88;;;1.20;;
20369;SDS011;10344;47.592;9.600;2022-07-29T04:52:36;1.48;;;1.20;;
20369;SDS011;10344;47.592;9.600;2022-07-29T04:55:04;1.95;;;1.40;;
20369;SDS011;10344;47.592;9.600;2022-07-29T04:57:30;1.60;;;1.20;;
20369;SDS011;10344;47.592;9.600;2022-07-29T04:59:56;1.95;;;1.35;;
20369;SDS011;10344;47.592;9.600;2022-07-29T05:02:22;1.55;;;1.20;;
20369;SDS011;10344;47.592;9.600;2022-07-29T05:04:47;1.40;;;1.30;;
20369;SDS011;10344;47.592;9.600;2022-07-29T05:07:13;1.60;;;1.20;;
20369;SDS011;10344;47.592;9.600;2022-07-29T05:09:39;2.13;;;1.47;;
20369;SDS011;10344;47.592;9.600;2022-07-29T05:12:05;1.30;;;1.20;;
20369;SDS011;10344;47.592;9.600;2022-07-29T05:14:31;1.95;;;1.33;;
20369;SDS011;10344;47.592;9.600;2022-07-29T05:16:57;1.40;;;1.30;;
20369;SDS011;10344;47.592;9.600;2022-07-29T05:19:25;2.10;;;1.30;;
20369;SDS011;10344;47.592;9.600;2022-07-29T05:21:51;1.27;;;1.10;;
20369;SDS011;10344;47.592;9.600;2022-07-29T05:24:17;2.30;;;1.40;;
20369;SDS011;10344;47.592;9.600;2022-07-29T05:26:43;1.47;;;1.37;;
20369;SDS011;10344;47.592;9.600;2022-07-29T05:29:08;2.03;;;1.50;;
20369;SDS011;10344;47.592;9.600;2022-07-29T05:31:34;1.40;;;1.30;;
20369;SDS011;10344;47.592;9.600;2022-07-29T05:33:59;1.35;;;1.25;;
20369;SDS011;10344;47.592;9.600;2022-07-29T05:36:25;1.75;;;1.33;;
20369;SDS011;10344;47.592;9.600;2022-07-29T05:38:51;2.50;;;1.40;;
20369;SDS011;10344;47.592;9.600;2022-07-29T05:41:17;1.35;;;1.25;;
20369;SDS011;10344;47.592;9.600;2022-07-29T05:43:43;1.80;;;1.40;;
20369;SDS011;10344;47.592;9.600;2022-07-29T05:46:09;2.25;;;1.40;;
20369;SDS011;10344;47.592;9.600;2022-07-29T05:48:41;1.95;;;1.20;;
20369;SDS011;10344;47.592;9.600;2022-07-29T05:51:07;1.45;;;1.35;;
20369;SDS011;10344;47.592;9.600;2022-07-29T05:53:32;1.37;;;1.27;;
20369;SDS011;10344;47.592;9.600;2022-07-29T05:55:58;1.30;;;1.20;;
20369;SDS011;10344;47.592;9.600;2022-07-29T05:58:28;1.70;;;1.50;;
20369;SDS011;10344;47.592;9.600;2022-07-29T06:00:54;2.50;;;1.70;;
20369;SDS011;10344;47.592;9.600;2022-07-29T06:03:23;2.17;;;1.45;;
20369;SDS011;10344;47.592;9.600;2022-07-29T06:05:55;2.03;;;1.55;;
20369;SDS011;10344;47.592;9.600;2022-07-29T06:08:20;2.00;;;1.53;;
20369;SDS011;10344;47.592;9.600;2022-07-29T06:10:46;2.40;;;1.60;;
20369;SDS011;10344;47.592;9.600;2022-07-29T06:13:12;2.00;;;1.80;;
20369;SDS011;10344;47.592;9.600;2022-07-29T06:15:40;2.08;;;1.60;;
20369;SDS011;10344;47.592;9.600;2022-07-29T06:18:07;2.67;;;1.60;;
20369;SDS011;10344;47.592;9.600;2022-07-29T06:20:34;2.30;;;1.50;;
20369;SDS011;10344;47.592;9.600;2022-07-29T06:23:00;2.33;;;1.67;;
20369;SDS011;10344;47.592;9.600;2022-07-29T06:25:26;1.70;;;1.40;;
20369;SDS011;10344;47.592;9.600;2022-07-29T06:27:55;1.50;;;1.40;;
20369;SDS011;10344;47.592;9.600;2022-07-29T06:30:21;1.70;;;1.48;;
20369;SDS011;10344;47.592;9.600;2022-07-29T06:32:46;2.95;;;1.60;;
20369;SDS011;10344;47.592;9.600;2022-07-29T06:35:12;2.50;;;1.50;;
20369;SDS011;10344;47.592;9.600;2022-07-29T06:37:38;3.78;;;1.80;;
20369;SDS011;10344;47.592;9.600;2022-07-29T06:40:04;1.83;;;1.50;;
20369;SDS011;10344;47.592;9.600;2022-07-29T06:42:48;1.75;;;1.55;;
20369;SDS011;10344;47.592;9.600;2022-07-29T06:45:14;1.30;;;1.20;;
20369;SDS011;10344;47.592;9.600;2022-07-29T06:47:41;2.22;;;1.30;;
20369;SDS011;10344;47.592;9.600;2022-07-29T06:50:09;1.07;;;1.00;;
20369;SDS011;10344;47.592;9.600;2022-07-29T06:52:37;1.20;;;1.10;;
20369;SDS011;10344;47.592;9.600;2022-07-29T06:55:03;1.50;;;1.30;;
20369;SDS011;10344;47.592;9.600;2022-07-29T06:57:30;1.83;;;1.30;;
20369;SDS011;10344;47.592;9.600;2022-07-29T06:59:58;1.63;;;1.23;;
20369;SDS011;10344;47.592;9.600;2022-07-29T07:02:24;1.73;;;1.10;;
20369;SDS011;10344;47.592;9.600;2022-07-29T07:04:52;1.52;;;1.17;;
20369;SDS011;10344;47.592;9.600;2022-07-29T07:07:18;1.60;;;1.30;;
20369;SDS011;10344;47.592;9.600;2022-07-29T07:09:43;2.35;;;1.40;;
20369;SDS011;10344;47.592;9.600;2022-07-29T07:12:09;1.25;;;1.13;;
20369;SDS011;10344;47.592;9.600;2022-07-29T07:14:34;1.30;;;1.20;;
20369;SDS011;10344;47.592;9.600;2022-07-29T07:17:01;1.23;;;1.02;;
20369;SDS011;10344;47.592;9.600;2022-07-29T07:19:28;1.55;;;1.10;;
20369;SDS011;10344;47.592;9.600;2022-07-29T07:21:54;1.00;;;1.00;;
20369;SDS011;10344;47.592;9.600;2022-07-29T07:24:20;1.42;;;1.00;;
20369;SDS011;10344;47.592;9.600;2022-07-29T07:26:46;1.30;;;1.00;;
20369;SDS011;10344;47.592;9.600;2022-07-29T07:29:11;1.30;;;1.20;;
20369;SDS011;10344;47.592;9.600;2022-07-29T07:31:39;1.10;;;1.00;;
20369;SDS011;10344;47.592;9.600;2022-07-29T07:34:04;1.30;;;1.20;;
20369;SDS011;10344;47.592;9.600;2022-07-29T07:36:30;2.05;;;1.10;;
20369;SDS011;10344;47.592;9.600;2022-07-29T07:38:56;2.47;;;1.08;;
20369;SDS011;10344;47.592;9.600;2022-07-29T07:41:21;1.33;;;1.13;;
20369;SDS011;10344;47.592;9.600;2022-07-29T07:43:47;2.40;;;1.10;;
20369;SDS011;10344;47.592;9.600;2022-07-29T07:46:13;1.25;;;1.05;;
20369;SDS011;10344;47.592;9.600;2022-07-29T07:48:39;1.65;;;1.20;;
20369;SDS011;10344;47.592;9.600;2022-07-29T07:51:05;1.63;;;1.20;;
20369;SDS011;10344;47.592;9.600;2022-07-29T07:53:32;2.22;;;1.15;;
20369;SDS011;10344;47.592;9.600;2022-07-29T07:55:57;2.28;;;1.10;;
20369;SDS011;10344;47.592;9.600;2022-07-29T07:58:23;1.98;;;1.10;;
20369;SDS011;10344;47.592;9.600;2022-07-29T08:00:49;1.70;;;1.10;;
20369;SDS011;10344;47.592;9.600;2022-07-29T08:03:15;2.72;;;1.13;;
20369;SDS011;10344;47.592;9.600;2022-07-29T08:05:40;2.20;;;1.20;;
20369;SDS011;10344;47.592;9.600;2022-07-29T08:08:06;1.52;;;1.15;;
20369;SDS011;10344;47.592;9.600;2022-07-29T08:10:31;1.50;;;1.20;;
20369;SDS011;10344;47.592;9.600;2022-07-29T08:13:16;1.40;;;1.30;;
20369;SDS011;10344;47.592;9.600;2022-07-29T08:15:41;1.30;;;1.10;;
20369;SDS011;10344;47.592;9.600;2022-07-29T08:18:08;1.20;;;1.10;;
20369;SDS011;10344;47.592;9.600;2022-07-29T08:20:34;2.45;;;1.30;;
20369;SDS011;10344;47.592;9.600;2022-07-29T08:23:01;2.70;;;1.33;;
20369;SDS011;10344;47.592;9.600;2022-07-29T08:25:40;1.53;;;1.40;;
20369;SDS011;10344;47.592;9.600;2022-07-29T08:28:07;2.30;;;1.10;;
20369;SDS011;10344;47.592;9.600;2022-07-29T08:30:33;1.20;;;1.10;;
20369;SDS011;10344;47.592;9.600;2022-07-29T08:33:01;3.30;;;1.10;;
20369;SDS011;10344;47.592;9.600;2022-07-29T08:35:28;1.55;;;1.10;;
20369;SDS011;10344;47.592;9.600;2022-07-29T08:37:53;1.03;;;1.00;;
20369;SDS011;10344;47.592;9.600;2022-07-29T08:40:24;1.17;;;1.00;;
20369;SDS011;10344;47.592;9.600;2022-07-29T08:42:50;1.17;;;1.07;;
20369;SDS011;10344;47.592;9.600;2022-07-29T08:45:18;1.20;;;1.10;;
20369;SDS011;10344;47.592;9.600;2022-07-29T08:47:46;1.30;;;1.20;;
20369;SDS011;10344;47.592;9.600;2022-07-29T08:50:12;1.77;;;1.20;;
20369;SDS011;10344;47.592;9.600;2022-07-29T08:52:39;1.27;;;1.17;;
20369;SDS011;10344;47.592;9.600;2022-07-29T08:55:08;2.80;;;1.30;;
20369;SDS011;10344;47.592;9.600;2022-07-29T08:57:35;1.45;;;1.20;;
20369;SDS011;10344;47.592;9.600;2022-07-29T09:00:04;1.27;;;1.17;;
20369;SDS011;10344;47.592;9.600;2022-07-29T09:02:33;1.60;;;1.30;;
20369;SDS011;10344;47.592;9.600;2022-07-29T09:05:04;1.67;;;1.52;;
20369;SDS011;10344;47.592;9.600;2022-07-29T09:07:30;1.48;;;1.38;;
20369;SDS011;10344;47.592;9.600;2022-07-29T09:09:59;1.40;;;1.30;;
20369;SDS011;10344;47.592;9.600;2022-07-29T09:12:34;2.00;;;1.40;;
20369;SDS011;10344;47.592;9.600;2022-07-29T09:15:00;1.40;;;1.30;;
20369;SDS011;10344;47.592;9.600;2022-07-29T09:17:42;1.33;;;1.23;;
20369;SDS011;10344;47.592;9.600;2022-07-29T09:20:09;2.20;;;1.52;;
20369;SDS011;10344;47.592;9.600;2022-07-29T09:22:37;1.85;;;1.40;;
20369;SDS011;10344;47.592;9.600;2022-07-29T09:25:02;2.30;;;1.40;;
20369;SDS011;10344;47.592;9.600;2022-07-29T09:27:28;2.13;;;1.50;;
20369;SDS011;10344;47.592;9.600;2022-07-29T09:29:58;2.60;;;1.57;;
20369;SDS011;10344;47.592;9.600;2022-07-29T09:32:29;1.40;;;1.30;;
20369;SDS011;10344;47.592;9.600;2022-07-29T09:35:14;1.63;;;1.50;;
20369;SDS011;10344;47.592;9.600;2022-07-29T09:37:40;1.73;;;1.50;;
20369;SDS011;10344;47.592;9.600;2022-07-29T09:40:27;2.60;;;1.77;;
20369;SDS011;10344;47.592;9.600;2022-07-29T09:42:53;2.63;;;1.80;;
20369;SDS011;10344;47.592;9.600;2022-07-29T09:48:12;2.83;;;1.95;;
20369;SDS011;10344;47.592;9.600;2022-07-29T09:50:43;1.95;;;1.80;;
20369;SDS011;10344;47.592;9.600;2022-07-29T09:53:11;2.83;;;2.28;;
20369;SDS011;10344;47.592;9.600;2022-07-29T09:55:56;2.90;;;2.25;;
20369;SDS011;10344;47.592;9.600;2022-07-29T09:58:23;1.98;;;1.80;;
20369;SDS011;10344;47.592;9.600;2022-07-29T10:00:49;2.00;;;1.80;;
20369;SDS011;10344;47.592;9.600;2022-07-29T10:03:16;2.72;;;1.80;;
20369;SDS011;10344;47.592;9.600;2022-07-29T10:05:42;2.58;;;1.80;;
20369;SDS011;10344;47.592;9.600;2022-07-29T10:08:09;1.80;;;1.60;;
20369;SDS011;10344;47.592;9.600;2022-07-29T10:10:37;2.97;;;1.92;;
20369;SDS011;10344;47.592;9.600;2022-07-29T10:13:23;2.70;;;1.75;;
20369;SDS011;10344;47.592;9.600;2022-07-29T10:15:51;2.80;;;1.60;;
20369;SDS011;10344;47.592;9.600;2022-07-29T10:18:16;3.05;;;2.45;;
20369;SDS011;10344;47.592;9.600;2022-07-29T10:20:44;2.08;;;1.88;;
20369;SDS011;10344;47.592;9.600;2022-07-29T10:23:10;2.60;;;2.03;;
20369;SDS011;10344;47.592;9.600;2022-07-29T10:25:37;2.25;;;1.80;;
20369;SDS011;10344;47.592;9.600;2022-07-29T10:28:08;1.98;;;1.85;;
20369;SDS011;10344;47.592;9.600;2022-07-29T10:30:58;2.70;;;2.00;;
20369;SDS011;10344;47.592;9.600;2022-07-29T10:39:04;3.30;;;2.20;;
20369;SDS011;10344;47.592;9.600;2022-07-29T10:41:43;2.60;;;1.95;;
20369;SDS011;10344;47.592;9.600;2022-07-29T10:44:21;2.63;;;1.70;;
20369;SDS011;10344;47.592;9.600;2022-07-29T10:46:48;2.93;;;1.80;;
20369;SDS011;10344;47.592;9.600;2022-07-29T10:49:26;2.47;;;2.13;;
20369;SDS011;10344;47.592;9.600;2022-07-29T10:54:54;2.78;;;2.10;;
20369;SDS011;10344;47.592;9.600;2022-07-29T10:57:30;2.47;;;2.00;;
20369;SDS011;10344;47.592;9.600;2022-07-29T11:05:11;2.45;;;2.10;;
20369;SDS011;10344;47.592;9.600;2022-07-29T11:08:16;2.92;;;1.92;;
20369;SDS011;10344;47.592;9.600;2022-07-29T11:10:48;2.37;;;1.90;;
20369;SDS011;10344;47.592;9.600;2022-07-29T11:16:08;2.95;;;2.10;;
20369;SDS011;10344;47.592;9.600;2022-07-29T11:18:34;2.60;;;1.65;;
20369;SDS011;10344;47.592;9.600;2022-07-29T11:20:59;2.80;;;1.70;;
20369;SDS011;10344;47.592;9.600;2022-07-29T11:31:46;2.00;;;1.50;;
20369;SDS011;10344;47.592;9.600;2022-07-29T11:34:20;1.67;;;1.50;;
20369;SDS011;10344;47.592;9.600;2022-07-29T11:47:32;2.92;;;1.67;;
20369;SDS011;10344;47.592;9.600;2022-07-29T11:50:04;2.13;;;1.60;;
20369;SDS011;10344;47.592;9.600;2022-07-29T11:52:33;1.98;;;1.50;;
20369;SDS011;10344;47.592;9.600;2022-07-29T11:55:02;1.63;;;1.53;;
20369;SDS011;10344;47.592;9.600;2022-07-29T11:57:31;1.90;;;1.45;;
20369;SDS011;10344;47.592;9.600;2022-07-29T12:00:03;1.75;;;1.50;;
20369;SDS011;10344;47.592;9.600;2022-07-29T12:02:40;1.77;;;1.60;;
20369;SDS011;10344;47.592;9.600;2022-07-29T12:05:08;1.50;;;1.38;;
20369;SDS011;10344;47.592;9.600;2022-07-29T12:07:35;1.65;;;1.40;;
20369;SDS011;10344;47.592;9.600;2022-07-29T12:10:02;1.70;;;1.50;;
20369;SDS011;10344;47.592;9.600;2022-07-29T12:12:29;1.50;;;1.17;;
20369;SDS011;10344;47.592;9.600;2022-07-29T12:14:55;1.20;;;1.10;;
20369;SDS011;10344;47.592;9.600;2022-07-29T12:20:00;1.42;;;1.27;;
20369;SDS011;10344;47.592;9.600;2022-07-29T12:22:37;1.30;;;1.20;;
20369;SDS011;10344;47.592;9.600;2022-07-29T12:25:11;1.25;;;1.13;;
20369;SDS011;10344;47.592;9.600;2022-07-29T12:27:40;1.20;;;1.10;;
20369;SDS011;10344;47.592;9.600;2022-07-29T12:30:11;1.20;;;1.10;;
20369;SDS011;10344;47.592;9.600;2022-07-29T12:32:41;1.77;;;1.30;;
20369;SDS011;10344;47.592;9.600;2022-07-29T12:37:39;1.92;;;1.35;;
20369;SDS011;10344;47.592;9.600;2022-07-29T12:40:07;1.90;;;1.40;;
20369;SDS011;10344;47.592;9.600;2022-07-29T12:42:34;2.88;;;1.30;;
20369;SDS011;10344;47.592;9.600;2022-07-29T12:45:02;1.67;;;1.48;;
20369;SDS011;10344;47.592;9.600;2022-07-29T12:47:29;1.70;;;1.60;;
20369;SDS011;10344;47.592;9.600;2022-07-29T12:50:08;1.52;;;1.42;;
20369;SDS011;10344;47.592;9.600;2022-07-29T12:52:42;1.50;;;1.40;;
20369;SDS011;10344;47.592;9.600;2022-07-29T12:55:09;2.63;;;1.50;;
20369;SDS011;10344;47.592;9.600;2022-07-29T12:57:47;1.88;;;1.40;;
20369;SDS011;10344;47.592;9.600;2022-07-29T13:00:13;2.72;;;1.55;;
20369;SDS011;10344;47.592;9.600;2022-07-29T13:02:41;2.00;;;1.63;;
20369;SDS011;10344;47.592;9.600;2022-07-29T13:05:08;1.60;;;1.40;;
20369;SDS011;10344;47.592;9.600;2022-07-29T13:07:36;1.40;;;1.30;;
20369;SDS011;10344;47.592;9.600;2022-07-29T13:12:37;1.52;;;1.40;;
20369;SDS011;10344;47.592;9.600;2022-07-29T13:15:13;1.40;;;1.30;;
20369;SDS011;10344;47.592;9.600;2022-07-29T13:17:41;1.65;;;1.55;;
20369;SDS011;10344;47.592;9.600;2022-07-29T13:20:09;2.08;;;1.48;;
20369;SDS011;10344;47.592;9.600;2022-07-29T13:22:39;2.50;;;1.80;;
20369;SDS011;10344;47.592;9.600;2022-07-29T13:25:07;2.13;;;1.70;;
20369;SDS011;10344;47.592;9.600;2022-07-29T13:27:34;1.98;;;1.52;;
20369;SDS011;10344;47.592;9.600;2022-07-29T13:30:02;1.75;;;1.52;;
20369;SDS011;10344;47.592;9.600;2022-07-29T13:32:30;1.87;;;1.50;;
20369;SDS011;10344;47.592;9.600;2022-07-29T13:34:57;1.60;;;1.50;;
20369;SDS011;10344;47.592;9.600;2022-07-29T13:37:25;2.38;;;1.48;;
20369;SDS011;10344;47.592;9.600;2022-07-29T13:39:51;2.00;;;1.58;;
20369;SDS011;10344;47.592;9.600;2022-07-29T13:42:19;1.80;;;1.53;;
20369;SDS011;10344;47.592;9.600;2022-07-29T13:44:44;2.08;;;1.63;;
20369;SDS011;10344;47.592;9.600;2022-07-29T13:47:10;1.70;;;1.52;;
20369;SDS011;10344;47.592;9.600;2022-07-29T13:49:36;1.70;;;1.60;;
20369;SDS011;10344;47.592;9.600;2022-07-29T13:52:02;2.08;;;1.60;;
20369;SDS011;10344;47.592;9.600;2022-07-29T13:54:28;1.65;;;1.48;;
20369;SDS011;10344;47.592;9.600;2022-07-29T13:56:53;2.92;;;1.92;;
20369;SDS011;10344;47.592;9.600;2022-07-29T13:59:20;2.17;;;1.97;;
20369;SDS011;10344;47.592;9.600;2022-07-29T14:01:46;2.00;;;1.80;;
20369;SDS011;10344;47.592;9.600;2022-07-29T14:04:12;1.90;;;1.60;;
20369;SDS011;10344;47.592;9.600;2022-07-29T14:06:38;2.10;;;1.90;;
20369;SDS011;10344;47.592;9.600;2022-07-29T14:09:04;3.33;;;2.10;;
20369;SDS011;10344;47.592;9.600;2022-07-29T14:11:31;2.55;;;1.90;;
20369;SDS011;10344;47.592;9.600;2022-07-29T14:13:57;2.33;;;2.13;;
20369;SDS011;10344;47.592;9.600;2022-07-29T14:16:23;2.40;;;2.20;;
20369;SDS011;10344;47.592;9.600;2022-07-29T14:18:48;5.25;;;3.20;;
20369;SDS011;10344;47.592;9.600;2022-07-29T14:21:14;3.33;;;2.93;;
20369;SDS011;10344;47.592;9.600;2022-07-29T14:23:39;3.72;;;3.20;;
20369;SDS011;10344;47.592;9.600;2022-07-29T14:26:06;3.37;;;3.03;;
20369;SDS011;10344;47.592;9.600;2022-07-29T14:28:32;3.30;;;3.00;;
20369;SDS011;10344;47.592;9.600;2022-07-29T14:30:57;4.32;;;2.85;;
20369;SDS011;10344;47.592;9.600;2022-07-29T14:33:25;3.63;;;2.90;;
20369;SDS011;10344;47.592;9.600;2022-07-29T14:35:51;3.10;;;2.80;;
20369;SDS011;10344;47.592;9.600;2022-07-29T14:38:16;3.42;;;2.70;;
20369;SDS011;10344;47.592;9.600;2022-07-29T14:40:42;2.77;;;2.57;;
20369;SDS011;10344;47.592;9.600;2022-07-29T14:43:11;3.45;;;3.10;;
20369;SDS011;10344;47.592;9.600;2022-07-29T14:45:37;4.03;;;3.60;;
20369;SDS011;10344;47.592;9.600;2022-07-29T14:48:03;3.80;;;3.20;;
20369;SDS011;10344;47.592;9.600;2022-07-29T14:50:28;4.03;;;3.25;;
20369;SDS011;10344;47.592;9.600;2022-07-29T14:52:54;4.00;;;3.40;;
20369;SDS011;10344;47.592;9.600;2022-07-29T14:55:20;4.40;;;3.27;;
20369;SDS011;10344;47.592;9.600;2022-07-29T14:57:46;3.15;;;2.75;;
20369;SDS011;10344;47.592;9.600;2022-07-29T15:00:12;3.47;;;3.00;;
20369;SDS011;10344;47.592;9.600;2022-07-29T15:02:37;3.42;;;3.03;;
20369;SDS011;10344;47.592;9.600;2022-07-29T15:05:03;3.40;;;3.03;;
20369;SDS011;10344;47.592;9.600;2022-07-29T15:07:33;3.22;;;2.78;;
20369;SDS011;10344;47.592;9.600;2022-07-29T15:09:59;3.50;;;3.20;;
20369;SDS011;10344;47.592;9.600;2022-07-29T15:12:24;3.75;;;3.35;;
20369;SDS011;10344;47.592;9.600;2022-07-29T15:14:50;3.50;;;3.20;;
20369;SDS011;10344;47.592;9.600;2022-07-29T15:17:16;4.15;;;3.20;;
20369;SDS011;10344;47.592;9.600;2022-07-29T15:19:41;3.57;;;2.80;;
20369;SDS011;10344;47.592;9.600;2022-07-29T15:22:07;3.63;;;3.00;;
20369;SDS011;10344;47.592;9.600;2022-07-29T15:24:33;3.50;;;2.75;;
20369;SDS011;10344;47.592;9.600;2022-07-29T15:26:59;3.00;;;2.70;;
20369;SDS011;10344;47.592;9.600;2022-07-29T15:29:26;3.00;;;2.70;;
20369;SDS011;10344;47.592;9.600;2022-07-29T15:31:52;3.07;;;2.50;;
20369;SDS011;10344;47.592;9.600;2022-07-29T15:34:18;3.27;;;2.97;;
20369;SDS011;10344;47.592;9.600;2022-07-29T15:36:45;2.90;;;2.60;;
20369;SDS011;10344;47.592;9.600;2022-07-29T15:39:11;3.53;;;2.80;;
20369;SDS011;10344;47.592;9.600;2022-07-29T15:41:36;2.95;;;2.67;;
20369;SDS011;10344;47.592;9.600;2022-07-29T15:44:02;4.60;;;2.67;;
20369;SDS011;10344;47.592;9.600;2022-07-29T15:46:28;2.60;;;2.37;;
20369;SDS011;10344;47.592;9.600;2022-07-29T15:49:12;2.73;;;2.23;;
20369;SDS011;10344;47.592;9.600;2022-07-29T15:51:38;2.77;;;2.50;;
20369;SDS011;10344;47.592;9.600;2022-07-29T15:54:04;2.95;;;2.53;;
20369;SDS011;10344;47.592;9.600;2022-07-29T15:56:32;2.83;;;2.50;;
20369;SDS011;10344;47.592;9.600;2022-07-29T15:58:57;2.58;;;2.38;;
20369;SDS011;10344;47.592;9.600;2022-07-29T16:01:23;2.90;;;2.60;;
20369;SDS011;10344;47.592;9.600;2022-07-29T16:03:49;3.13;;;2.83;;
20369;SDS011;10344;47.592;9.600;2022-07-29T16:06:15;3.10;;;2.80;;
20369;SDS011;10344;47.592;9.600;2022-07-29T16:08:41;2.97;;;2.70;;
20369;SDS011;10344;47.592;9.600;2022-07-29T16:11:07;3.08;;;2.88;;
20369;SDS011;10344;47.592;9.600;2022-07-29T16:13:32;3.87;;;3.23;;
20369;SDS011;10344;47.592;9.600;2022-07-29T16:15:58;3.80;;;3.00;;
20369;SDS011;10344;47.592;9.600;2022-07-29T16:18:23;3.63;;;3.20;;
20369;SDS011;10344;47.592;9.600;2022-07-29T16:20:51;4.03;;;3.27;;
20369;SDS011;10344;47.592;9.600;2022-07-29T16:23:18;5.13;;;3.33;;
20369;SDS011;10344;47.592;9.600;2022-07-29T16:25:44;3.50;;;3.20;;
20369;SDS011;10344;47.592;9.600;2022-07-29T16:28:11;3.75;;;3.00;;
20369;SDS011;10344;47.592;9.600;2022-07-29T16:30:37;4.95;;;2.90;;
20369;SDS011;10344;47.592;9.600;2022-07-29T16:33:03;3.40;;;2.88;;
20369;SDS011;10344;47.592;9.600;2022-07-29T16:35:31;3.78;;;2.97;;
20369;SDS011;10344;47.592;9.600;2022-07-29T16:37:57;4.88;;;2.65;;
20369;SDS011;10344;47.592;9.600;2022-07-29T16:40:22;3.30;;;2.50;;
20369;SDS011;10344;47.592;9.600;2022-07-29T16:42:48;2.60;;;2.40;;
20369;SDS011;10344;47.592;9.600;2022-07-29T16:45:15;2.60;;;2.40;;
20369;SDS011;10344;47.592;9.600;2022-07-29T16:47:43;2.30;;;2.10;;
20369;SDS011;10344;47.592;9.600;2022-07-29T16:50:08;2.30;;;2.05;;
20369;SDS011;10344;47.592;9.600;2022-07-29T16:52:34;2.10;;;1.90;;
20369;SDS011;10344;47.592;9.600;2022-07-29T16:55:01;2.40;;;2.00;;
20369;SDS011;10344;47.592;9.600;2022-07-29T16:57:27;2.70;;;2.00;;
20369;SDS011;10344;47.592;9.600;2022-07-29T16:59:52;2.90;;;2.00;;
20369;SDS011;10344;47.592;9.600;2022-07-29T17:02:18;2.50;;;2.30;;
20369;SDS011;10344;47.592;9.600;2022-07-29T17:04:44;3.38;;;2.10;;
20369;SDS011;10344;47.592;9.600;2022-07-29T17:07:09;3.37;;;2.10;;
20369;SDS011;10344;47.592;9.600;2022-07-29T17:09:35;2.20;;;2.00;;
20369;SDS011;10344;47.592;9.600;2022-07-29T17:12:03;2.70;;;2.13;;
20369;SDS011;10344;47.592;9.600;2022-07-29T17:14:29;2.33;;;1.90;;
20369;SDS011;10344;47.592;9.600;2022-07-29T17:16:56;2.20;;;2.00;;
20369;SDS011;10344;47.592;9.600;2022-07-29T17:19:26;2.60;;;2.03;;
20369;SDS011;10344;47.592;9.600;2022-07-29T17:21:58;2.88;;;2.25;;
20369;SDS011;10344;47.592;9.600;2022-07-29T17:24:24;2.50;;;2.10;;
20369;SDS011;10344;47.592;9.600;2022-07-29T17:26:49;2.20;;;2.00;;
20369;SDS011;10344;47.592;9.600;2022-07-29T17:29:15;2.45;;;2.03;;
20369;SDS011;10344;47.592;9.600;2022-07-29T17:31:41;2.33;;;2.05;;
20369;SDS011;10344;47.592;9.600;2022-07-29T17:34:06;2.40;;;2.13;;
20369;SDS011;10344;47.592;9.600;2022-07-29T17:36:33;3.35;;;2.50;;
20369;SDS011;10344;47.592;9.600;2022-07-29T17:39:03;2.92;;;2.40;;
20369;SDS011;10344;47.592;9.600;2022-07-29T17:41:30;2.15;;;1.95;;
20369;SDS011;10344;47.592;9.600;2022-07-29T17:43:56;3.15;;;2.13;;
20369;SDS011;10344;47.592;9.600;2022-07-29T17:46:23;2.65;;;2.40;;
20369;SDS011;10344;47.592;9.600;2022-07-29T17:48:51;2.30;;;2.10;;
20369;SDS011;10344;47.592;9.600;2022-07-29T17:51:20;2.20;;;2.00;;
20369;SDS011;10344;47.592;9.600;2022-07-29T17:53:46;2.20;;;2.00;;
20369;SDS011;10344;47.592;9.600;2022-07-29T17:56:12;2.80;;;2.00;;
20369;SDS011;10344;47.592;9.600;2022-07-29T17:58:38;2.73;;;2.30;;
20369;SDS011;10344;47.592;9.600;2022-07-29T18:01:04;2.50;;;2.07;;
20369;SDS011;10344;47.592;9.600;2022-07-29T18:03:30;2.40;;;2.10;;
20369;SDS011;10344;47.592;9.600;2022-07-29T18:05:56;2.50;;;2.27;;
20369;SDS011;10344;47.592;9.600;2022-07-29T18:08:21;2.30;;;2.10;;
20369;SDS011;10344;47.592;9.600;2022-07-29T18:10:50;2.20;;;2.00;;
20369;SDS011;10344;47.592;9.600;2022-07-29T18:13:15;2.20;;;2.00;;
20369;SDS011;10344;47.592;9.600;2022-07-29T18:15:42;2.50;;;2.30;;
20369;SDS011;10344;47.592;9.600;2022-07-29T18:18:09;2.80;;;2.40;;
20369;SDS011;10344;47.592;9.600;2022-07-29T18:20:36;2.90;;;2.60;;
20369;SDS011;10344;47.592;9.600;2022-07-29T18:23:02;2.55;;;2.15;;
20369;SDS011;10344;47.592;9.600;2022-07-29T18:25:28;2.95;;;2.65;;
20369;SDS011;10344;47.592;9.600;2022-07-29T18:27:56;2.63;;;2.20;;
20369;SDS011;10344;47.592;9.600;2022-07-29T18:30:22;2.80;;;2.33;;
20369;SDS011;10344;47.592;9.600;2022-07-29T18:32:49;2.40;;;2.20;;
20369;SDS011;10344;47.592;9.600;2022-07-29T18:35:18;2.23;;;2.00;;
20369;SDS011;10344;47.592;9.600;2022-07-29T18:37:44;2.40;;;2.20;;
20369;SDS011;10344;47.592;9.600;2022-07-29T18:40:09;3.10;;;2.63;;
20369;SDS011;10344;47.592;9.600;2022-07-29T18:42:36;2.80;;;2.30;;
20369;SDS011;10344;47.592;9.600;2022-07-29T18:45:05;2.38;;;2.13;;
20369;SDS011;10344;47.592;9.600;2022-07-29T18:47:32;3.55;;;2.20;;
20369;SDS011;10344;47.592;9.600;2022-07-29T18:49:59;2.40;;;2.20;;
20369;SDS011;10344;47.592;9.600;2022-07-29T18:52:44;2.28;;;2.08;;
20369;SDS011;10344;47.592;9.600;2022-07-29T18:55:34;2.35;;;2.00;;
20369;SDS011;10344;47.592;9.600;2022-07-29T18:57:59;2.10;;;1.87;;
20369;SDS011;10344;47.592;9.600;2022-07-29T19:00:25;2.20;;;2.00;;
20369;SDS011;10344;47.592;9.600;2022-07-29T19:02:51;2.47;;;2.25;;
20369;SDS011;10344;47.592;9.600;2022-07-29T19:05:17;2.80;;;2.40;;
20369;SDS011;10344;47.592;9.600;2022-07-29T19:07:47;2.60;;;1.90;;
20369;SDS011;10344;47.592;9.600;2022-07-29T19:10:12;2.63;;;2.20;;
20369;SDS011;10344;47.592;9.600;2022-07-29T19:12:38;2.70;;;2.40;;
20369;SDS011;10344;47.592;9.600;2022-07-29T19:15:04;2.23;;;2.03;;
20369;SDS011;10344;47.592;9.600;2022-07-29T19:17:29;2.63;;;2.13;;
20369;SDS011;10344;47.592;9.600;2022-07-29T19:19:55;2.77;;;2.00;;
20369;SDS011;10344;47.592;9.600;2022-07-29T19:22:21;2.80;;;2.20;;
20369;SDS011;10344;47.592;9.600;2022-07-29T19:24:47;2.10;;;1.90;;
20369;SDS011;10344;47.592;9.600;2022-07-29T19:27:13;2.40;;;2.10;;
20369;SDS011;10344;47.592;9.600;2022-07-29T19:29:39;2.37;;;2.00;;
20369;SDS011;10344;47.592;9.600;2022-07-29T19:32:04;2.40;;;2.20;;
20369;SDS011;10344;47.592;9.600;2022-07-29T19:34:30;2.77;;;2.20;;
20369;SDS011;10344;47.592;9.600;2022-07-29T19:36:58;2.45;;;2.10;;
20369;SDS011;10344;47.592;9.600;2022-07-29T19:39:24;2.08;;;1.92;;
20369;SDS011;10344;47.592;9.600;2022-07-29T19:41:52;2.72;;;2.20;;
20369;SDS011;10344;47.592;9.600;2022-07-29T19:44:20;2.60;;;2.33;;
20369;SDS011;10344;47.592;9.600;2022-07-29T19:46:45;3.90;;;2.20;;
20369;SDS011;10344;47.592;9.600;2022-07-29T19:49:11;2.58;;;2.38;;
20369;SDS011;10344;47.592;9.600;2022-07-29T19:51:37;2.60;;;2.27;;
20369;SDS011;10344;47.592;9.600;2022-07-29T19:54:04;3.03;;;2.43;;
20369;SDS011;10344;47.592;9.600;2022-07-29T19:56:32;3.30;;;2.30;;
20369;SDS011;10344;47.592;9.600;2022-07-29T19:58:58;3.17;;;2.60;;
20369;SDS011;10344;47.592;9.600;2022-07-29T20:01:26;2.83;;;2.50;;
20369;SDS011;10344;47.592;9.600;2022-07-29T20:03:51;3.67;;;2.70;;